CheckWX is a tool to help pilots better visualize weather data.  It is not intended as a substitute for an official pre-flight weather briefing.

23:56:24 UTC

KHZY METAR
Northeast Ohio Regional Airport
Ashtabula, Ohio, USA
Current

1 hour ago

KHZY 052253Z AUTO 33006KT 10SM CLR 06/01 A3015 RMK AO2 SLP214 T00610011
Observed
Apr-5 @ 22:53 UTC
Wind
  • 330° at 6 KTS
Visibility
Flight Rules
VFR
Cloud Levels
  • Clear skies
Temperature
C / 43°F
Dewpoint
C / 34°F
Humidity
71%
Altimeter
30.15" Hg
Pressure
1021.02 hPa
Previous

2 hours ago

KHZY 052153Z AUTO 32008KT 10SM CLR 06/02 A3014 RMK AO2 SLP211 T00610017
Observed
Apr-5 @ 21:53 UTC
Wind
  • 320° at 8 KTS
Visibility
Flight Rules
VFR
Cloud Levels
  • Clear skies
Temperature
C / 43°F
Dewpoint
C / 36°F
Humidity
76%
Altimeter
30.14" Hg
Pressure
1020.62 hPa
Previous

3 hours ago

KHZY 052120Z AUTO 30009KT 10SM SCT014 07/02 A3013 RMK AO2 T00670022
Observed
Apr-5 @ 21:20 UTC
Wind
  • 300° at 9 KTS
Visibility
Flight Rules
VFR
Cloud Levels
  • Scattered at 1,400' AGL
Temperature
C / 45°F
Dewpoint
C / 36°F
Humidity
71%
Altimeter
30.13" Hg
Pressure
1020.32 hPa